Time;durP1;ratioP1;P1;durP2;ratioP2;P2;SDS_P1;SDS_P2;PMS_P1;PMS_P2;Temp;Humidity;BMP_temperature;BMP_pressure;BME280_temperature;BME280_humidity;BME280_pressure;Samples;Min_cycle;Max_cycle;Signal;HPM_P1;HPM_P2
2022/08/07 00:01:03;;;;;;;18.83;14.83;;;;;;;23.11;100.00;98824.44;5053564;28;20172;-86
2022/08/07 00:03:28;;;;;;;17.30;14.93;;;;;;;22.91;100.00;98783.41;5058510;28;20165;-86
2022/08/07 00:05:54;;;;;;;17.77;15.30;;;;;;;22.70;100.00;98769.13;5061512;28;20215;-85
2022/08/07 00:08:21;;;;;;;22.00;15.03;;;;;;;22.07;100.00;98646.22;5066304;28;21048;-85
2022/08/07 00:10:48;;;;;;;19.50;14.70;;;;;;;21.99;100.00;98666.97;5059495;28;20196;-85
2022/08/07 00:13:14;;;;;;;19.63;15.40;;;;;;;22.75;100.00;98818.94;5053506;28;20177;-85
2022/08/07 00:15:40;;;;;;;20.37;15.13;;;;;;;21.90;100.00;98669.66;5053948;28;20177;-87
2022/08/07 00:18:07;;;;;;;19.80;14.83;;;;;;;22.93;100.00;98820.41;5052829;28;20201;-86
2022/08/07 00:20:33;;;;;;;22.50;15.40;;;;;;;22.50;100.00;98740.13;5054152;28;20177;-86
2022/08/07 00:22:58;;;;;;;18.83;14.70;;;;;;;21.60;100.00;98590.16;5055065;28;20296;-87
2022/08/07 00:25:24;;;;;;;19.63;14.10;;;;;;;21.55;100.00;98566.19;5053955;28;20199;-87
2022/08/07 00:27:50;;;;;;;19.30;14.07;;;;;;;22.10;100.00;98671.97;5053640;28;20174;-87
2022/08/07 00:30:16;;;;;;;17.73;14.33;;;;;;;21.61;100.00;98585.00;5053232;28;20185;-87
2022/08/07 00:32:42;;;;;;;18.60;13.27;;;;;;;22.73;100.00;98763.91;5055148;28;20165;-86
2022/08/07 00:35:08;;;;;;;20.30;14.43;;;;;;;23.10;100.00;98807.25;5055646;28;20244;-86
2022/08/07 00:37:34;;;;;;;18.13;14.53;;;;;;;21.30;100.00;98529.59;5051840;28;20196;-88
2022/08/07 00:39:59;;;;;;;17.40;14.27;;;;;;;22.42;100.00;98713.59;5052682;28;20166;-86
2022/08/07 00:42:24;;;;;;;15.70;13.80;;;;;;;23.07;100.00;98813.31;5053168;28;20197;-86
2022/08/07 00:44:50;;;;;;;17.27;14.37;;;;;;;21.39;100.00;98562.97;5043241;28;20161;-87
2022/08/07 00:47:15;;;;;;;21.63;14.57;;;;;;;22.59;100.00;98762.38;5042923;28;20197;-87
2022/08/07 00:49:40;;;;;;;18.37;14.17;;;;;;;22.91;100.00;98812.69;5034091;28;20201;-87
2022/08/07 00:52:08;;;;;;;16.37;14.20;;;;;;;21.74;100.00;98616.59;5036536;28;20173;-87
2022/08/07 00:54:33;;;;;;;16.17;13.80;;;;;;;22.28;100.00;98706.06;5036832;28;20210;-87
2022/08/07 00:56:59;;;;;;;19.20;14.30;;;;;;;22.17;100.00;98673.56;5034478;28;21008;-90
2022/08/07 00:59:25;;;;;;;17.17;14.13;;;;;;;21.70;100.00;98605.47;5036677;28;20165;-89
2022/08/07 01:01:50;;;;;;;19.97;14.63;;;;;;;21.95;100.00;98661.88;5035507;28;20174;-87
2022/08/07 01:04:17;;;;;;;19.17;15.03;;;;;;;21.43;100.00;98580.06;5039978;28;20189;-89
2022/08/07 01:06:44;;;;;;;17.77;14.50;;;;;;;22.70;100.00;98820.75;5039409;28;20159;-85
2022/08/07 01:09:10;;;;;;;19.87;14.93;;;;;;;21.70;100.00;98657.00;5038827;28;20196;-87
2022/08/07 01:11:36;;;;;;;27.27;22.70;;;;;;;22.65;100.00;98827.69;5036196;28;20651;-84
2022/08/07 01:14:01;;;;;;;25.63;20.13;;;;;;;22.04;100.00;98822.44;5036142;28;20661;-86
2022/08/07 01:16:27;;;;;;;27.50;21.33;;;;;;;22.16;100.00;98821.44;5036651;28;20174;-87
2022/08/07 01:18:54;;;;;;;27.90;21.80;;;;;;;21.72;100.00;98730.00;5036610;28;20576;-87
2022/08/07 01:21:23;;;;;;;42.27;33.47;;;;;;;20.32;100.00;98485.25;5034218;28;20194;-86
2022/08/07 01:23:50;;;;;;;41.60;34.10;;;;;;;22.08;100.00;98763.97;5035959;28;20178;-87
2022/08/07 01:26:17;;;;;;;37.70;29.10;;;;;;;21.94;100.00;98764.13;5034751;28;20253;-88
2022/08/07 01:28:44;;;;;;;32.03;23.30;;;;;;;22.03;100.00;98825.88;5036886;28;20220;-87
2022/08/07 01:31:10;;;;;;;31.70;23.33;;;;;;;20.07;100.00;98488.91;5037200;28;20170;-87
2022/08/07 01:33:35;;;;;;;29.00;22.50;;;;;;;20.02;100.00;98490.66;5035679;28;20174;-87
2022/08/07 01:36:02;;;;;;;29.37;21.10;;;;;;;21.80;100.00;98816.66;5036808;28;20642;-87
2022/08/07 01:38:29;;;;;;;28.60;21.67;;;;;;;20.65;100.00;98622.09;5035399;28;20297;-87
2022/08/07 01:40:59;;;;;;;28.50;22.50;;;;;;;21.68;100.00;98805.59;5036204;28;20625;-88
2022/08/07 01:43:26;;;;;;;30.53;23.53;;;;;;;21.83;100.00;98803.75;5042258;28;20533;-86
2022/08/07 01:45:52;;;;;;;36.60;27.47;;;;;;;21.53;100.00;98790.31;5049573;28;20298;-86
2022/08/07 01:48:18;;;;;;;35.63;29.10;;;;;;;21.23;100.00;98793.19;5061141;28;20244;-85
2022/08/07 01:50:51;;;;;;;28.70;22.50;;;;;;;21.37;100.00;98793.88;5056971;28;20193;-87
2022/08/07 01:53:20;;;;;;;23.30;18.67;;;;;;;21.24;100.00;98801.72;5055445;28;20173;-85
2022/08/07 01:55:50;;;;;;;21.10;17.33;;;;;;;20.14;100.00;98593.31;5053709;28;20620;-86
2022/08/07 01:58:20;;;;;;;19.07;16.47;;;;;;;21.28;100.00;98746.78;5055091;28;20255;-88
2022/08/07 02:00:51;;;;;;;20.43;16.57;;;;;;;20.41;100.00;98628.28;5055217;28;20227;-87
2022/08/07 02:03:20;;;;;;;21.07;16.50;;;;;;;21.63;100.00;98803.94;5055575;28;20177;-88
2022/08/07 02:05:50;;;;;;;24.07;16.53;;;;;;;20.47;100.00;98639.38;5055922;28;20168;-87
2022/08/07 02:08:22;;;;;;;20.73;17.23;;;;;;;20.70;100.00;98666.63;5055364;28;20200;-87
2022/08/07 02:10:51;;;;;;;20.50;16.40;;;;;;;20.34;100.00;98619.78;5053579;28;20632;-87
2022/08/07 02:13:20;;;;;;;21.90;16.97;;;;;;;20.30;100.00;98630.09;5054655;28;20170;-87
2022/08/07 02:15:47;;;;;;;19.37;16.43;;;;;;;20.06;100.00;98584.81;5055317;28;20219;-88
2022/08/07 02:18:15;;;;;;;21.47;16.50;;;;;;;20.67;100.00;98667.50;5055171;28;20193;-88
2022/08/07 02:20:42;;;;;;;20.87;16.03;;;;;;;20.77;100.00;98655.41;5055887;28;20248;-88
2022/08/07 02:23:10;;;;;;;20.57;16.60;;;;;;;19.71;100.00;98479.75;5055444;28;20240;-87
2022/08/07 02:25:38;;;;;;;29.47;22.67;;;;;;;21.28;100.00;98796.56;5055156;28;20579;-88
2022/08/07 02:28:05;;;;;;;36.37;27.80;;;;;;;21.26;100.00;98793.13;5057572;28;20170;-88
2022/08/07 02:30:33;;;;;;;41.23;31.83;;;;;;;20.88;100.00;98728.22;5053851;28;20177;-87
2022/08/07 02:33:00;;;;;;;34.30;24.63;;;;;;;21.36;100.00;98799.06;5055329;28;20165;-86
2022/08/07 02:35:26;;;;;;;27.70;20.40;;;;;;;20.09;100.00;98625.91;5055555;28;20219;-87
2022/08/07 02:37:53;;;;;;;21.90;18.43;;;;;;;21.31;100.00;98801.69;5056132;28;20229;-85
2022/08/07 02:40:19;;;;;;;22.87;17.17;;;;;;;21.31;100.00;98805.97;5056384;28;20161;-86
2022/08/07 02:42:45;;;;;;;20.53;16.73;;;;;;;20.20;100.00;98620.69;5056708;28;20194;-86
2022/08/07 02:45:14;;;;;;;25.20;18.77;;;;;;;21.34;100.00;98793.94;5046149;28;20158;-86
2022/08/07 02:47:39;;;;;;;23.23;18.13;;;;;;;21.03;100.00;98759.84;5055694;28;20551;-89
2022/08/07 02:50:06;;;;;;;25.97;19.60;;;;;;;21.26;100.00;98803.41;5054815;28;20170;-85
2022/08/07 02:52:40;;;;;;;25.97;20.37;;;;;;;20.70;100.00;98697.50;5057491;28;20212;-86
2022/08/07 02:55:21;;;;;;;25.53;20.97;;;;;;;21.21;100.00;98784.59;5055599;28;20695;-86
2022/08/07 02:57:48;;;;;;;45.47;34.00;;;;;;;21.67;100.00;98809.03;5058249;28;20196;-86
2022/08/07 03:00:15;;;;;;;53.07;40.60;;;;;;;21.69;100.00;98811.63;5065079;28;20165;-85
2022/08/07 03:02:44;;;;;;;48.97;37.33;;;;;;;21.09;100.00;98746.97;5080354;28;20169;-85
2022/08/07 03:05:10;;;;;;;29.93;22.50;;;;;;;21.19;100.00;98806.91;5061241;28;20173;-86
2022/08/07 03:07:37;;;;;;;28.87;20.67;;;;;;;21.25;100.00;98806.88;5058371;28;20161;-86
2022/08/07 03:10:04;;;;;;;25.53;20.90;;;;;;;21.17;100.00;98765.75;5058081;28;20373;-86
2022/08/07 03:12:31;;;;;;;25.97;19.03;;;;;;;21.48;100.00;98804.94;5057292;28;20158;-86
2022/08/07 03:14:57;;;;;;;24.90;19.07;;;;;;;20.23;100.00;98660.09;5057219;28;20171;-86
2022/08/07 03:17:23;;;;;;;22.40;18.30;;;;;;;19.95;100.00;98591.75;5056412;28;20203;-86
2022/08/07 03:19:49;;;;;;;20.80;17.33;;;;;;;20.59;100.00;98711.31;5056773;28;20161;-85
2022/08/07 03:22:16;;;;;;;21.90;17.10;;;;;;;20.40;100.00;98652.31;5056736;28;20165;-87
2022/08/07 03:24:41;;;;;;;25.77;17.97;;;;;;;19.29;100.00;98501.41;5059390;28;20176;-86
2022/08/07 03:27:08;;;;;;;26.97;19.03;;;;;;;20.21;100.00;98672.13;5059569;28;20178;-86
2022/08/07 03:29:41;;;;;;;21.70;17.83;;;;;;;20.40;100.00;98678.88;5056558;28;20173;-87
2022/08/07 03:32:10;;;;;;;23.93;17.07;;;;;;;20.62;100.00;98750.72;5055992;28;20821;-86
2022/08/07 03:34:38;;;;;;;23.93;17.53;;;;;;;20.18;100.00;98659.28;5052226;28;20185;-87
2022/08/07 03:37:06;;;;;;;25.87;17.50;;;;;;;20.21;100.00;98654.13;5054909;28;20241;-86
2022/08/07 03:39:34;;;;;;;20.77;17.50;;;;;;;21.43;100.00;98827.31;5055830;28;20170;-88
2022/08/07 03:42:02;;;;;;;23.93;17.33;;;;;;;20.93;100.00;98752.22;5056933;28;20166;-87
2022/08/07 03:44:28;;;;;;;22.33;17.00;;;;;;;21.46;100.00;98831.56;5055352;28;20191;-87
2022/08/07 03:46:54;;;;;;;24.53;17.73;;;;;;;21.47;100.00;98834.16;5026371;28;20261;-88
2022/08/07 03:49:20;;;;;;;24.13;18.73;;;;;;;21.41;100.00;98823.91;5033959;28;20174;-88
2022/08/07 03:51:46;;;;;;;23.17;18.27;;;;;;;21.27;100.00;98818.00;5034560;28;20166;-88
2022/08/07 03:54:12;;;;;;;25.40;19.23;;;;;;;21.18;100.00;98779.47;5044217;28;20192;-88
2022/08/07 03:56:39;;;;;;;23.67;18.07;;;;;;;20.90;100.00;98696.47;5054862;28;20177;-91
2022/08/07 03:59:06;;;;;;;23.73;18.17;;;;;;;20.80;100.00;98720.56;5056581;28;20181;-86
2022/08/07 04:01:33;;;;;;;21.73;17.07;;;;;;;19.21;100.00;98474.06;5062187;28;20184;-85
2022/08/07 04:03:59;;;;;;;25.83;20.50;;;;;;;20.40;100.00;98689.16;5057561;28;20179;-87
2022/08/07 04:06:25;;;;;;;26.67;20.57;;;;;;;21.30;100.00;98824.84;5051147;28;20260;-85
2022/08/07 04:08:51;;;;;;;28.13;20.93;;;;;;;20.40;100.00;98671.16;5060991;28;20722;-86
2022/08/07 04:11:17;;;;;;;25.47;20.60;;;;;;;21.69;100.00;98829.66;5059712;28;20200;-87
2022/08/07 04:13:44;;;;;;;28.47;22.37;;;;;;;21.90;100.00;98829.44;5058196;28;20166;-85
2022/08/07 04:16:09;;;;;;;30.87;25.30;;;;;;;21.28;100.00;98723.59;5049667;28;20170;-85
2022/08/07 04:18:35;;;;;;;31.90;24.33;;;;;;;21.37;100.00;98713.22;5054788;28;20212;-86
2022/08/07 04:21:00;;;;;;;34.27;24.77;;;;;;;21.86;100.00;98790.81;5055118;28;20192;-86
2022/08/07 04:23:28;;;;;;;27.37;21.40;;;;;;;21.97;100.00;98830.25;5053196;28;20166;-85
2022/08/07 04:25:53;;;;;;;26.67;20.33;;;;;;;20.43;100.00;98575.16;5048574;28;20641;-89
2022/08/07 04:28:19;;;;;;;25.40;19.80;;;;;;;21.60;100.00;98737.84;5052204;28;20184;-85
2022/08/07 04:30:49;;;;;;;25.77;19.93;;;;;;;22.14;100.00;98825.75;5051542;28;20169;-89
2022/08/07 04:33:16;;;;;;;20.77;16.30;;;;;;;21.73;100.00;98762.59;5051012;28;20181;-89
2022/08/07 04:35:46;;;;;;;20.27;15.07;;;;;;;21.05;100.00;98620.81;5049155;28;20229;-87
2022/08/07 04:38:12;;;;;;;19.13;15.03;;;;;;;21.02;100.00;98588.25;5055110;28;20292;-88
2022/08/07 04:40:41;;;;;;;23.43;17.10;;;;;;;20.85;99.64;98525.81;5052018;28;20668;-90
2022/08/07 04:43:07;;;;;;;27.47;18.87;;;;;;;21.81;97.70;98622.53;5063378;28;20223;-88
2022/08/07 04:46:02;;;;;;;28.47;21.70;;;;;;;23.22;96.26;98845.78;5038211;28;20234;-87
2022/08/07 04:49:02;;;;;;;21.70;17.53;;;;;;;23.17;96.59;98852.75;5031413;28;20185;-86
2022/08/07 04:51:50;;;;;;;17.87;15.10;;;;;;;23.11;95.80;98790.84;5034939;28;20166;-85
2022/08/07 04:54:23;;;;;;;18.70;15.63;;;;;;;23.49;95.07;98858.28;5031328;28;20273;-86
2022/08/07 04:56:59;;;;;;;20.47;14.97;;;;;;;22.02;96.94;98684.97;5030486;28;20202;-87
2022/08/07 05:00:00;;;;;;;17.60;14.80;;;;;;;23.51;95.02;98861.69;5034832;28;20169;-88
2022/08/07 05:02:32;;;;;;;17.27;14.77;;;;;;;21.36;95.43;98506.34;5030523;28;20181;-85
2022/08/07 05:05:17;;;;;;;19.40;15.57;;;;;;;22.58;95.22;98707.34;5031876;28;20550;-87
2022/08/07 05:08:16;;;;;;;21.13;16.00;;;;;;;23.11;96.43;98832.16;5011335;28;20186;-85
2022/08/07 05:10:47;;;;;;;23.73;17.00;;;;;;;23.16;97.60;98863.94;4951663;29;20192;-86
2022/08/07 05:13:19;;;;;;;25.33;19.13;;;;;;;21.89;98.97;98693.75;4954117;29;20193;-86
2022/08/07 05:15:49;;;;;;;26.63;21.30;;;;;;;22.88;99.99;98861.78;4935767;29;20965;-87
2022/08/07 05:18:21;;;;;;;25.30;18.77;;;;;;;23.40;96.97;98871.38;4951024;29;20297;-86
2022/08/07 05:20:50;;;;;;;22.10;18.27;;;;;;;23.23;96.49;98817.34;4950636;29;20196;-87
2022/08/07 05:23:19;;;;;;;22.67;17.90;;;;;;;22.53;96.40;98711.72;4951855;29;20181;-85
2022/08/07 05:25:47;;;;;;;22.43;17.73;;;;;;;22.54;94.89;98679.03;4951699;29;20196;-85
2022/08/07 05:28:14;;;;;;;20.77;17.40;;;;;;;20.63;94.75;98367.47;4951659;29;20291;-85
2022/08/07 05:30:41;;;;;;;24.73;18.37;;;;;;;23.95;94.83;98873.84;4951461;29;20192;-82
2022/08/07 05:33:08;;;;;;;21.40;17.70;;;;;;;23.33;96.30;98844.72;4951180;29;20177;-86
2022/08/07 05:35:35;;;;;;;20.50;17.77;;;;;;;23.37;98.02;98871.38;4951662;28;20224;-85
2022/08/07 05:38:03;;;;;;;26.97;21.00;;;;;;;22.66;97.28;98753.72;4955091;29;20220;-86
2022/08/07 05:40:29;;;;;;;25.87;21.13;;;;;;;23.29;97.36;98868.88;4955653;29;20189;-85
2022/08/07 05:42:55;;;;;;;28.20;20.10;;;;;;;23.30;95.16;98833.59;4954936;29;20265;-85
2022/08/07 05:45:25;;;;;;;25.87;19.40;;;;;;;23.33;95.16;98820.63;4948267;28;20180;-84
2022/08/07 05:47:52;;;;;;;24.13;19.20;;;;;;;21.97;94.03;98583.66;5050387;28;20227;-84
2022/08/07 05:50:18;;;;;;;28.13;21.73;;;;;;;22.67;93.01;98641.88;5074883;28;20299;-84
2022/08/07 05:52:43;;;;;;;29.17;22.97;;;;;;;23.25;90.91;98667.50;5075212;28;20201;-85
2022/08/07 05:55:09;;;;;;;28.43;22.47;;;;;;;24.29;90.00;98840.44;5075309;28;20172;-86
2022/08/07 05:57:36;;;;;;;24.63;19.67;;;;;;;24.70;89.97;98892.19;5074380;28;20199;-85
2022/08/07 06:00:02;;;;;;;25.27;19.87;;;;;;;23.81;87.95;98698.28;5075754;28;20191;-86
2022/08/07 06:02:32;;;;;;;27.10;19.73;;;;;;;25.14;87.07;98883.47;5075756;28;20192;-83
2022/08/07 06:05:09;;;;;;;20.87;17.33;;;;;;;25.11;86.35;98899.94;5075142;28;20173;-84
2022/08/07 06:07:35;;;;;;;23.97;20.10;;;;;;;24.36;88.81;98822.19;5079285;28;20214;-87
2022/08/07 06:10:02;;;;;;;30.40;24.77;;;;;;;24.83;87.72;98906.59;5076385;28;20169;-86
2022/08/07 06:12:28;;;;;;;25.07;21.57;;;;;;;25.05;86.21;98899.25;5077403;28;20165;-85
2022/08/07 06:14:54;;;;;;;21.97;17.17;;;;;;;24.78;86.37;98913.59;5071553;28;20196;-87
2022/08/07 06:17:20;;;;;;;18.10;15.10;;;;;;;24.74;84.78;98906.78;5067508;28;20246;-86
2022/08/07 06:19:46;;;;;;;17.70;15.30;;;;;;;24.90;84.38;98908.19;5054249;28;20181;-86
2022/08/07 06:22:13;;;;;;;20.27;15.37;;;;;;;25.32;83.19;98910.72;5054475;28;20169;-85
2022/08/07 06:24:39;;;;;;;17.90;14.60;;;;;;;25.64;79.23;98859.81;5054343;28;20166;-86
2022/08/07 06:27:07;;;;;;;18.83;15.33;;;;;;;25.79;76.89;98830.03;5054160;28;20203;-85
2022/08/07 06:29:33;;;;;;;16.30;14.20;;;;;;;26.64;75.55;98902.97;5055430;28;20193;-84
2022/08/07 06:31:59;;;;;;;16.63;14.27;;;;;;;27.12;72.98;98909.31;5054753;28;20571;-87
2022/08/07 06:34:28;;;;;;;16.92;14.43;;;;;;;26.17;73.94;98829.88;5055571;28;20257;-86
2022/08/07 06:36:56;;;;;;;16.42;14.15;;;;;;;25.92;74.62;98813.25;5054765;28;20938;-89
2022/08/07 06:39:22;;;;;;;15.98;14.27;;;;;;;26.35;74.23;98852.69;5053661;28;20178;-82
2022/08/07 06:42:06;;;;;;;14.60;13.00;;;;;;;26.06;72.39;98768.75;5055156;28;20178;-86
2022/08/07 06:44:33;;;;;;;14.77;12.85;;;;;;;26.72;71.23;98909.63;5052839;28;20273;-85
2022/08/07 06:46:59;;;;;;;15.77;13.10;;;;;;;26.82;70.35;98908.50;5043210;28;20239;-85
2022/08/07 06:49:25;;;;;;;14.73;11.77;;;;;;;26.97;68.97;98880.34;5073101;28;20525;-85
2022/08/07 06:51:52;;;;;;;14.98;11.85;;;;;;;27.09;67.26;98913.75;5074687;28;20250;-86
2022/08/07 06:54:19;;;;;;;14.35;12.18;;;;;;;27.45;66.60;98904.81;5075298;28;20196;-85
2022/08/07 06:56:49;;;;;;;12.68;11.15;;;;;;;26.52;61.73;98678.25;5073587;28;20156;-85
2022/08/07 06:59:32;;;;;;;12.95;11.65;;;;;;;26.55;64.22;98739.63;5074614;28;20527;-87
2022/08/07 07:01:58;;;;;;;13.90;12.32;;;;;;;27.29;65.26;98888.00;5074456;28;20172;-84
2022/08/07 07:04:24;;;;;;;12.55;11.27;;;;;;;26.65;63.63;98762.66;5074385;28;20176;-85
2022/08/07 07:06:50;;;;;;;12.90;11.20;;;;;;;27.44;62.69;98909.16;5074279;28;20161;-85
2022/08/07 07:09:17;;;;;;;12.55;11.25;;;;;;;28.22;61.31;98912.63;5075901;28;20192;-82
2022/08/07 07:12:04;;;;;;;13.00;11.63;;;;;;;28.43;60.33;98917.06;5073508;28;20167;-87
2022/08/07 07:14:39;;;;;;;14.82;12.15;;;;;;;28.10;60.81;98848.81;5074960;28;20273;-85
2022/08/07 07:17:17;;;;;;;14.88;11.82;;;;;;;28.74;59.87;98914.22;5075166;28;20190;-84
2022/08/07 07:19:47;;;;;;;13.27;11.60;;;;;;;29.08;57.70;98926.84;5056746;28;20180;-83
2022/08/07 07:22:14;;;;;;;13.98;11.23;;;;;;;28.93;57.50;98911.75;5054754;28;20178;-84
2022/08/07 07:24:41;;;;;;;14.90;11.32;;;;;;;29.35;55.20;98799.72;5056648;28;20630;-85
2022/08/07 07:27:10;;;;;;;12.85;11.27;;;;;;;29.68;55.36;98928.78;5055149;28;20188;-84
2022/08/07 07:29:39;;;;;;;12.45;11.15;;;;;;;29.50;54.72;98887.81;5053666;28;20173;-85
2022/08/07 07:32:12;;;;;;;11.80;10.45;;;;;;;28.79;56.09;98888.00;5052406;28;20565;-86
2022/08/07 07:34:44;;;;;;;12.40;10.57;;;;;;;28.01;54.98;98747.63;5053318;28;20925;-85
2022/08/07 07:37:12;;;;;;;15.15;10.70;;;;;;;29.37;54.12;98931.78;5052850;28;20289;-85
2022/08/07 07:39:39;;;;;;;12.93;10.70;;;;;;;29.76;53.94;98935.41;5052855;28;20170;-84
2022/08/07 07:42:09;;;;;;;12.27;11.00;;;;;;;29.99;52.94;98912.72;5053568;28;20165;-85
2022/08/07 07:44:38;;;;;;;12.32;10.35;;;;;;;30.15;49.61;98864.16;5066655;28;20211;-84
2022/08/07 07:47:06;;;;;;;10.93;9.73;;;;;;;30.37;48.50;98855.31;5063478;28;20988;-85
2022/08/07 07:49:34;;;;;;;11.90;9.50;;;;;;;31.11;46.54;98912.91;5060520;28;20211;-84
2022/08/07 07:52:01;;;;;;;10.30;9.20;;;;;;;31.22;47.28;98932.44;5050777;28;20181;-84
2022/08/07 07:54:29;;;;;;;10.13;9.13;;;;;;;30.90;45.75;98870.31;5052410;28;20188;-84
2022/08/07 07:56:56;;;;;;;14.10;9.10;;;;;;;31.82;44.64;98928.63;5052633;28;20206;-84
2022/08/07 07:59:21;;;;;;;10.27;9.27;;;;;;;32.35;44.67;98925.94;5056849;28;20600;-85
2022/08/07 08:01:49;;;;;;;13.50;9.98;;;;;;;32.49;42.84;98896.38;5053206;28;20184;-85
2022/08/07 08:04:17;;;;;;;10.45;9.40;;;;;;;32.68;42.25;98920.69;5051869;28;20221;-84
2022/08/07 08:06:45;;;;;;;10.80;9.70;;;;;;;31.33;43.60;98780.16;5053202;28;20169;-83
2022/08/07 08:09:13;;;;;;;11.88;9.80;;;;;;;32.88;42.71;98944.06;5051276;28;20237;-85
2022/08/07 08:11:39;;;;;;;10.98;9.85;;;;;;;33.12;42.60;98948.00;5052707;28;20256;-85
2022/08/07 08:14:04;;;;;;;11.27;10.00;;;;;;;33.22;42.08;98953.59;5051309;28;21413;-84
2022/08/07 08:16:37;;;;;;;11.23;10.02;;;;;;;33.17;42.38;98919.75;5052549;28;20172;-85
2022/08/07 08:19:07;;;;;;;10.55;9.40;;;;;;;33.41;42.19;98922.75;5052155;28;20170;-85
2022/08/07 08:27:13;;;;;;;10.55;9.45;;;;;;;33.74;40.56;98894.59;5054490;28;20771;-84
2022/08/07 08:29:45;;;;;;;11.30;9.90;;;;;;;33.55;40.95;98935.94;5060016;28;20176;-84
2022/08/07 08:32:14;;;;;;;13.45;10.90;;;;;;;32.22;42.91;98879.47;5072763;28;20163;-84
2022/08/07 08:34:41;;;;;;;12.45;10.90;;;;;;;30.74;42.46;98663.66;5071615;28;20192;-85
2022/08/07 08:37:09;;;;;;;12.02;10.82;;;;;;;32.37;42.86;98926.69;5072872;28;20629;-86
2022/08/07 08:39:36;;;;;;;11.57;10.38;;;;;;;31.63;41.71;98772.53;5073489;28;20189;-85
2022/08/07 08:42:06;;;;;;;11.60;9.85;;;;;;;32.92;41.48;98935.09;5076349;28;20176;-84
2022/08/07 08:44:51;;;;;;;11.02;9.73;;;;;;;32.38;39.83;98813.06;5075986;28;20183;-84
2022/08/07 08:47:45;;;;;;;12.00;10.82;;;;;;;32.81;41.95;98926.97;5069029;28;20254;-86
2022/08/07 08:50:20;;;;;;;11.95;9.90;;;;;;;33.13;40.85;98923.44;5073788;28;20161;-83
2022/08/07 08:52:51;;;;;;;10.93;9.82;;;;;;;32.41;40.72;98843.50;5074369;28;20164;-85
2022/08/07 08:55:35;;;;;;;11.00;9.90;;;;;;;32.42;42.01;98926.44;5090930;28;20625;-86
2022/08/07 08:58:13;;;;;;;11.30;9.70;;;;;;;32.81;39.91;98926.13;5090855;28;20204;-85
2022/08/07 09:00:46;;;;;;;10.05;9.02;;;;;;;32.23;39.23;98792.06;5072451;28;20256;-85
2022/08/07 09:03:24;;;;;;;11.55;9.63;;;;;;;32.00;40.81;98747.00;5074832;28;20226;-85
2022/08/07 09:06:08;;;;;;;10.55;8.88;;;;;;;32.48;39.53;98816.88;5070905;28;20166;-85
2022/08/07 09:08:45;;;;;;;8.93;7.97;;;;;;;33.41;38.22;98920.13;5053382;28;20227;-85
2022/08/07 09:11:23;;;;;;;9.70;8.70;;;;;;;33.41;38.92;98908.78;5054577;28;20230;-85
2022/08/07 09:13:48;;;;;;;9.55;8.50;;;;;;;33.19;39.20;98912.63;5056000;28;20173;-86
2022/08/07 09:16:35;;;;;;;13.55;11.27;;;;;;;33.28;39.41;98915.66;5055360;28;20252;-85
2022/08/07 09:19:21;;;;;;;10.85;8.98;;;;;;;32.93;39.72;98909.72;5054657;28;20169;-83
2022/08/07 09:22:21;;;;;;;10.68;8.90;;;;;;;33.14;39.80;98862.19;5054475;28;20559;-82
2022/08/07 09:25:08;;;;;;;10.40;9.13;;;;;;;33.05;40.08;98920.41;5053558;28;20178;-83
2022/08/07 09:28:04;;;;;;;8.70;6.78;;;;;;;33.25;36.69;98893.06;5053147;28;20188;-83
2022/08/07 09:30:44;;;;;;;7.65;6.45;;;;;;;33.80;35.92;98904.75;4992021;28;20196;-83
2022/08/07 09:33:45;;;;;;;8.10;6.47;;;;;;;34.23;35.85;98897.78;4993183;28;20179;-82
2022/08/07 09:36:18;;;;;;;10.43;6.40;;;;;;;33.70;36.17;98903.59;5000418;28;20240;-81
2022/08/07 09:38:53;;;;;;;6.88;6.18;;;;;;;33.69;36.54;98901.03;5031328;28;20214;-82
2022/08/07 09:41:43;;;;;;;6.80;6.20;;;;;;;33.60;35.76;98901.56;5031619;28;20208;-82
2022/08/07 09:44:11;;;;;;;6.85;6.20;;;;;;;32.95;37.35;98902.59;5032211;28;20677;-82
2022/08/07 09:47:02;;;;;;;6.72;6.13;;;;;;;33.60;36.66;98898.94;5019874;28;20291;-82
2022/08/07 09:49:51;;;;;;;8.15;6.28;;;;;;;34.24;34.86;98896.88;5031284;28;20182;-83
2022/08/07 09:52:28;;;;;;;6.65;5.78;;;;;;;33.61;35.96;98887.50;5030759;28;20212;-83
2022/08/07 09:55:30;;;;;;;6.47;5.88;;;;;;;33.07;36.32;98900.16;5031745;28;20257;-83
2022/08/07 09:58:25;;;;;;;7.68;6.00;;;;;;;33.39;36.37;98887.03;5030687;28;20233;-83
2022/08/07 10:01:17;;;;;;;6.93;5.90;;;;;;;33.22;35.83;98849.47;5031675;28;20201;-82
2022/08/07 10:04:00;;;;;;;6.60;5.90;;;;;;;33.11;36.01;98885.13;5031943;28;20261;-82
2022/08/07 10:06:41;;;;;;;8.40;6.13;;;;;;;32.96;36.65;98875.47;5032434;28;20257;-82
2022/08/07 10:09:17;;;;;;;6.30;5.70;;;;;;;33.25;35.66;98869.44;5053159;28;20171;-82
2022/08/07 10:11:58;;;;;;;10.88;6.10;;;;;;;33.18;35.43;98863.69;5053284;28;20829;-82
2022/08/07 10:15:00;;;;;;;6.80;5.60;;;;;;;33.15;36.04;98869.13;5053938;28;20214;-82
2022/08/07 10:17:50;;;;;;;7.45;5.82;;;;;;;33.42;35.04;98860.59;5052685;28;20205;-83
2022/08/07 10:20:31;;;;;;;5.72;5.13;;;;;;;33.73;34.03;98850.03;5052697;28;20539;-83
2022/08/07 10:23:07;;;;;;;5.80;5.20;;;;;;;34.51;32.85;98857.50;5058908;28;20277;-83
2022/08/07 10:25:50;;;;;;;6.40;5.72;;;;;;;33.85;34.19;98867.69;5054310;28;20177;-83
2022/08/07 10:28:28;;;;;;;5.60;5.10;;;;;;;33.83;32.72;98866.94;5053844;28;20315;-85
2022/08/07 10:31:31;;;;;;;5.78;5.28;;;;;;;33.83;32.35;98862.53;5057104;28;20180;-87
2022/08/07 10:34:16;;;;;;;6.85;5.30;;;;;;;33.28;32.48;98753.78;5053996;28;20196;-84
2022/08/07 10:36:57;;;;;;;6.63;5.38;;;;;;;33.53;32.32;98805.69;5054127;28;20225;-83
2022/08/07 10:39:32;;;;;;;5.55;5.00;;;;;;;33.55;33.47;98859.81;5055265;28;20192;-83
2022/08/07 10:42:04;;;;;;;6.95;4.65;;;;;;;32.59;33.54;98797.97;5054750;28;20177;-84
2022/08/07 10:44:46;;;;;;;5.60;4.97;;;;;;;32.84;33.70;98863.84;5056821;28;20173;-84
2022/08/07 10:47:23;;;;;;;6.00;5.38;;;;;;;33.21;33.85;98863.50;5049231;28;20229;-84
2022/08/07 10:49:57;;;;;;;6.57;5.40;;;;;;;33.63;32.88;98862.00;5055279;28;20173;-85
2022/08/07 10:52:57;;;;;;;5.90;5.30;;;;;;;33.70;33.58;98855.47;5060161;28;20180;-85
2022/08/07 10:55:29;;;;;;;5.82;4.88;;;;;;;33.38;32.40;98751.44;5032606;28;20198;-85
2022/08/07 10:58:36;;;;;;;9.07;5.50;;;;;;;34.18;32.66;98844.66;5016407;28;20229;-83
2022/08/07 11:01:30;;;;;;;7.10;4.72;;;;;;;34.19;32.10;98842.88;4977655;28;20350;-83
2022/08/07 11:03:55;;;;;;;7.32;5.10;;;;;;;34.21;31.78;98847.09;4983820;28;20911;-83
2022/08/07 11:06:43;;;;;;;5.65;5.00;;;;;;;34.38;31.11;98844.28;4976417;28;20215;-85
2022/08/07 11:09:42;;;;;;;5.82;5.10;;;;;;;33.99;32.95;98844.06;4985531;28;20191;-83
2022/08/07 11:12:17;;;;;;;5.95;5.40;;;;;;;34.07;32.02;98827.81;4895770;29;20194;-84
2022/08/07 11:14:51;;;;;;;5.50;5.00;;;;;;;34.27;31.27;98822.22;4895939;29;20309;-84
2022/08/07 11:17:35;;;;;;;6.75;5.32;;;;;;;34.56;32.13;98837.03;4895658;29;20222;-83
2022/08/07 11:20:07;;;;;;;7.78;5.32;;;;;;;34.55;31.51;98823.97;4896540;29;20199;-85
2022/08/07 11:22:54;;;;;;;6.55;5.10;;;;;;;34.05;30.88;98707.06;4896221;29;20664;-84
2022/08/07 11:25:28;;;;;;;5.70;5.20;;;;;;;33.91;30.73;98728.09;4896343;29;20247;-87
2022/08/07 11:28:05;;;;;;;6.75;5.28;;;;;;;34.16;31.64;98836.03;4895255;29;20192;-86
2022/08/07 11:30:44;;;;;;;6.03;5.40;;;;;;;34.09;31.26;98820.75;4896465;29;20193;-86
2022/08/07 11:33:23;;;;;;;6.00;5.18;;;;;;;34.90;30.13;98817.34;4913814;29;20197;-85
2022/08/07 11:36:26;;;;;;;6.25;5.05;;;;;;;34.86;29.71;98824.59;4914470;29;20221;-82
2022/08/07 11:39:09;;;;;;;7.00;5.50;;;;;;;34.87;29.58;98822.81;4976691;28;20277;-84
2022/08/07 11:41:45;;;;;;;6.18;5.20;;;;;;;34.25;29.78;98817.09;4991230;28;20695;-84
2022/08/07 11:44:48;;;;;;;5.70;5.10;;;;;;;34.10;30.55;98823.25;4990521;28;20233;-84